Time;durP1;ratioP1;P1;durP2;ratioP2;P2;SDS_P1;SDS_P2;PMS_P1;PMS_P2;Temp;Humidity;BMP_temperature;BMP_pressure;BME280_temperature;BME280_humidity;BME280_pressure;Samples;Min_cycle;Max_cycle;Signal;HPM_P1;HPM_P2
2022/06/22 00:01:54;;;;;;;9.25;3.17;;;13.70;99.90;;;;;;5017873;28;20083;-85
2022/06/22 00:04:46;;;;;;;8.70;3.70;;;13.70;99.90;;;;;;5017786;28;20021;-86
2022/06/22 00:07:20;;;;;;;5.95;3.50;;;13.60;99.90;;;;;;5016885;28;20040;-86
2022/06/22 00:09:46;;;;;;;5.20;3.08;;;13.50;99.90;;;;;;5034026;28;20028;-85
2022/06/22 00:12:28;;;;;;;6.82;3.90;;;13.50;99.90;;;;;;5017389;28;20030;-86
2022/06/22 00:14:56;;;;;;;6.45;4.00;;;13.40;99.90;;;;;;5017696;28;20363;-85
2022/06/22 00:17:35;;;;;;;6.18;4.35;;;13.40;99.90;;;;;;5017369;28;20056;-85
2022/06/22 00:20:15;;;;;;;7.55;4.57;;;13.40;99.90;;;;;;5017375;28;20474;-85
2022/06/22 00:22:51;;;;;;;7.22;4.30;;;13.40;99.90;;;;;;5017116;28;20087;-86
2022/06/22 00:25:25;;;;;;;7.03;4.60;;;13.40;99.90;;;;;;5017341;28;20040;-85
2022/06/22 00:27:51;;;;;;;10.85;5.15;;;13.40;99.90;;;;;;5033869;28;20021;-86
2022/06/22 00:30:30;;;;;;;10.48;5.35;;;13.40;99.90;;;;;;5017138;28;20017;-85
2022/06/22 00:33:11;;;;;;;8.10;4.15;;;13.50;99.90;;;;;;5034542;28;20030;-86
2022/06/22 00:35:48;;;;;;;9.10;4.93;;;13.50;99.90;;;;;;5016984;28;20124;-85
2022/06/22 00:38:28;;;;;;;10.18;6.03;;;13.50;99.90;;;;;;5034839;28;20116;-86
2022/06/22 00:41:21;;;;;;;11.60;6.25;;;13.50;99.90;;;;;;5034659;28;20026;-86
2022/06/22 00:43:47;;;;;;;;;;;13.50;99.90;;;;;;5017055;28;20037;-85
2022/06/22 00:46:15;;;;;;;9.65;5.93;;;13.40;99.90;;;;;;5034448;28;19912;-85
2022/06/22 00:48:41;;;;;;;9.15;5.68;;;13.40;99.90;;;;;;5016726;28;20493;-86
2022/06/22 00:51:13;;;;;;;8.40;5.80;;;13.50;99.90;;;;;;5034180;28;20025;-86
2022/06/22 00:53:54;;;;;;;11.85;5.78;;;13.40;99.90;;;;;;5016717;28;20385;-85
2022/06/22 00:56:26;;;;;;;13.65;6.00;;;13.50;99.90;;;;;;5016743;28;20504;-85
2022/06/22 00:59:04;;;;;;;13.10;6.45;;;13.40;99.90;;;;;;5033220;28;20075;-85
2022/06/22 01:01:42;;;;;;;7.40;5.45;;;13.40;99.90;;;;;;5016623;28;20025;-85
2022/06/22 01:04:15;;;;;;;10.07;5.20;;;13.40;99.90;;;;;;5033992;28;20033;-85
2022/06/22 01:06:55;;;;;;;14.43;6.40;;;13.40;99.90;;;;;;5033687;28;20543;-85
2022/06/22 01:09:55;;;;;;;12.30;6.90;;;13.40;99.90;;;;;;5016409;28;20026;-85
2022/06/22 01:12:29;;;;;;;10.93;6.70;;;13.30;99.90;;;;;;4980206;28;20041;-85
2022/06/22 01:15:30;;;;;;;7.43;5.90;;;13.30;99.90;;;;;;5016501;28;20036;-86
2022/06/22 01:18:14;;;;;;;14.23;6.03;;;13.30;99.90;;;;;;5033927;28;20489;-85
2022/06/22 01:21:16;;;;;;;18.10;7.43;;;13.30;99.90;;;;;;5033654;28;20022;-85
2022/06/22 01:24:07;;;;;;;9.87;6.80;;;13.30;99.90;;;;;;4998034;28;20045;-85
2022/06/22 01:27:18;;;;;;;13.13;7.55;;;13.40;99.90;;;;;;5032791;28;20033;-86
2022/06/22 01:29:53;;;;;;;15.52;7.10;;;13.30;99.90;;;;;;5016014;28;20552;-85
2022/06/22 01:32:35;;;;;;;14.13;7.82;;;13.30;99.90;;;;;;5016197;28;20056;-85
2022/06/22 01:35:12;;;;;;;10.10;7.40;;;13.30;99.90;;;;;;5016158;28;20033;-85
2022/06/22 01:37:39;;;;;;;12.38;7.90;;;13.20;99.90;;;;;;5015746;28;20056;-85
2022/06/22 01:40:20;;;;;;;12.10;7.53;;;13.20;99.90;;;;;;5016115;28;20083;-85
2022/06/22 01:43:00;;;;;;;10.52;7.30;;;13.20;99.90;;;;;;5015844;28;20073;-85
2022/06/22 01:45:32;;;;;;;14.25;7.65;;;13.20;99.90;;;;;;5033727;28;20025;-85
2022/06/22 01:48:00;;;;;;;;;;;13.10;99.90;;;;;;5033995;28;20029;-85
2022/06/22 01:50:40;;;;;;;12.50;7.80;;;13.00;99.90;;;;;;5015878;28;19947;-85
2022/06/22 01:53:29;;;;;;;14.63;8.20;;;13.00;99.90;;;;;;5015859;28;20033;-84
2022/06/22 01:56:01;;;;;;;13.50;8.35;;;12.90;99.90;;;;;;5033543;28;20083;-85
2022/06/22 01:58:48;;;;;;;13.30;8.48;;;12.90;99.90;;;;;;5033355;28;20034;-85
2022/06/22 02:01:32;;;;;;;15.15;8.15;;;12.90;99.90;;;;;;5033563;28;20053;-85
2022/06/22 02:03:57;;;;;;;13.35;8.20;;;12.90;99.90;;;;;;5033423;28;20477;-85
2022/06/22 02:09:19;;;;;;;16.30;8.15;;;12.70;99.90;;;;;;5053550;28;20503;-85
2022/06/22 02:12:18;;;;;;;12.32;8.63;;;12.70;99.90;;;;;;5035475;28;20119;-85
2022/06/22 02:14:44;;;;;;;18.30;11.07;;;12.60;99.90;;;;;;5053148;28;20029;-85
2022/06/22 02:17:13;;;;;;;15.68;9.27;;;12.60;99.90;;;;;;5035509;28;20049;-85
2022/06/22 02:19:40;;;;;;;17.55;10.88;;;12.60;99.90;;;;;;5053186;28;20025;-85
2022/06/22 02:22:11;;;;;;;12.95;9.77;;;12.70;99.90;;;;;;5035640;28;20033;-85
2022/06/22 02:24:43;;;;;;;17.27;10.73;;;12.70;99.90;;;;;;5053034;28;20028;-85
2022/06/22 02:27:11;;;;;;;13.15;10.70;;;12.70;99.90;;;;;;5035559;28;20028;-85
2022/06/22 02:29:48;;;;;;;17.05;10.52;;;12.70;99.90;;;;;;5053009;28;20541;-85
2022/06/22 02:32:40;;;;;;;19.35;10.80;;;12.70;99.90;;;;;;5035146;28;20048;-85
2022/06/22 02:35:09;;;;;;;18.60;11.35;;;12.70;99.90;;;;;;5056644;28;20110;-85
2022/06/22 02:37:39;;;;;;;19.52;11.38;;;12.60;99.90;;;;;;5039124;28;20036;-84
2022/06/22 02:40:09;;;;;;;16.02;9.75;;;12.70;99.90;;;;;;5056883;28;20029;-85
2022/06/22 02:45:21;;;;;;;22.45;11.82;;;12.60;99.90;;;;;;5056835;28;20028;-85
2022/06/22 02:48:01;;;;;;;14.85;11.27;;;12.60;99.90;;;;;;5038717;28;20021;-85
2022/06/22 02:50:45;;;;;;;17.65;11.70;;;12.60;99.90;;;;;;5038981;28;20075;-85
2022/06/22 02:53:19;;;;;;;16.52;11.27;;;12.60;99.90;;;;;;5038803;28;20025;-85
2022/06/22 02:55:45;;;;;;;16.23;10.45;;;12.50;99.90;;;;;;5056578;28;20025;-85
2022/06/22 02:58:30;;;;;;;16.38;11.82;;;12.50;99.90;;;;;;5038689;28;20074;-85
2022/06/22 03:00:59;;;;;;;20.92;12.85;;;12.50;99.90;;;;;;5038595;28;20025;-85
2022/06/22 03:03:24;;;;;;;16.50;11.05;;;12.50;99.90;;;;;;5038382;28;20040;-85
2022/06/22 03:05:54;;;;;;;18.80;12.10;;;12.50;99.90;;;;;;5038645;28;20032;-85
2022/06/22 03:08:20;;;;;;;16.17;11.07;;;12.50;99.90;;;;;;5038341;28;20389;-85
2022/06/22 03:11:05;;;;;;;19.50;12.38;;;12.40;99.90;;;;;;5038586;28;20025;-85
2022/06/22 03:13:37;;;;;;;18.75;12.45;;;12.40;99.90;;;;;;5038726;28;20120;-85
2022/06/22 03:16:04;;;;;;;18.33;12.55;;;12.40;99.90;;;;;;5038341;28;20572;-85
2022/06/22 03:18:32;;;;;;;22.40;12.52;;;12.40;99.90;;;;;;5038320;28;20027;-85
2022/06/22 03:21:05;;;;;;;17.10;12.02;;;12.40;99.90;;;;;;5038505;28;20431;-85
2022/06/22 03:23:45;;;;;;;22.77;12.10;;;12.40;99.90;;;;;;5038180;28;20029;-85
2022/06/22 03:26:31;;;;;;;19.23;12.02;;;12.40;99.90;;;;;;5038482;28;20070;-86
2022/06/22 03:29:18;;;;;;;18.05;11.82;;;12.30;99.90;;;;;;5038343;28;20035;-85
2022/06/22 03:31:57;;;;;;;17.55;11.65;;;12.30;99.90;;;;;;5038036;28;20025;-85
2022/06/22 03:34:29;;;;;;;21.58;11.52;;;12.20;99.90;;;;;;5038166;28;20025;-85
2022/06/22 03:37:13;;;;;;;17.90;11.48;;;12.20;99.90;;;;;;5037707;28;20532;-85
2022/06/22 03:39:44;;;;;;;19.85;11.32;;;12.10;99.90;;;;;;5035100;28;20104;-85
2022/06/22 03:42:20;;;;;;;16.52;11.20;;;12.10;99.90;;;;;;5038007;28;20060;-86
2022/06/22 03:45:05;;;;;;;16.55;10.43;;;12.00;99.90;;;;;;5037774;28;20033;-85
2022/06/22 03:47:34;;;;;;;13.88;9.68;;;11.90;99.90;;;;;;5037529;28;20163;-85
2022/06/22 03:50:22;;;;;;;18.15;11.82;;;11.90;99.90;;;;;;5037755;28;20390;-85
2022/06/22 03:52:55;;;;;;;16.13;12.25;;;11.90;99.90;;;;;;5054237;28;20028;-85
2022/06/22 03:55:25;;;;;;;16.92;11.23;;;11.90;99.90;;;;;;5055587;28;20032;-85
2022/06/22 03:57:54;;;;;;;16.98;10.50;;;11.90;99.90;;;;;;5037349;28;20029;-85
2022/06/22 04:00:21;;;;;;;15.10;11.52;;;11.90;99.90;;;;;;5037735;28;20048;-85
2022/06/22 04:02:48;;;;;;;11.60;9.52;;;11.90;99.90;;;;;;5055350;28;20025;-85
2022/06/22 04:05:17;;;;;;;14.02;10.88;;;11.90;99.90;;;;;;5055169;28;20021;-86
2022/06/22 04:07:44;;;;;;;13.82;10.13;;;11.80;99.90;;;;;;5037165;28;20116;-85
2022/06/22 04:10:44;;;;;;;16.83;11.20;;;11.80;99.90;;;;;;5037470;28;20032;-85
2022/06/22 04:13:16;;;;;;;22.83;13.43;;;11.80;99.90;;;;;;5037428;28;20029;-85
2022/06/22 04:15:58;;;;;;;;;;;11.90;99.90;;;;;;5038012;28;20491;-85
2022/06/22 04:18:32;;;;;;;21.20;12.35;;;11.90;99.90;;;;;;5037225;28;19905;-85
2022/06/22 04:21:03;;;;;;;22.40;13.93;;;12.00;99.90;;;;;;5037019;28;20116;-85
2022/06/22 04:23:55;;;;;;;18.98;13.35;;;12.10;99.90;;;;;;5037295;28;20041;-85
2022/06/22 04:26:35;;;;;;;18.40;13.40;;;12.20;99.90;;;;;;5037164;28;20021;-85
2022/06/22 04:29:19;;;;;;;21.02;13.23;;;12.20;99.90;;;;;;5036923;28;20032;-85
2022/06/22 04:31:57;;;;;;;17.08;13.05;;;12.40;99.90;;;;;;5036995;28;20025;-85
2022/06/22 04:34:49;;;;;;;22.23;14.15;;;12.50;99.90;;;;;;5036730;28;20017;-85
2022/06/22 04:37:35;;;;;;;24.27;14.35;;;12.50;99.90;;;;;;5036887;28;20041;-85
2022/06/22 04:40:14;;;;;;;21.35;14.82;;;12.60;99.90;;;;;;5054528;28;20036;-85
2022/06/22 04:42:39;;;;;;;27.50;14.80;;;12.70;99.90;;;;;;5054393;28;20103;-85
2022/06/22 04:45:06;;;;;;;21.65;14.55;;;12.70;99.90;;;;;;5054419;28;20029;-85
2022/06/22 04:47:35;;;;;;;22.80;14.77;;;12.80;99.90;;;;;;5036718;28;20120;-85
2022/06/22 04:50:13;;;;;;;21.83;14.68;;;12.90;99.90;;;;;;5054341;28;20055;-85
2022/06/22 04:52:44;;;;;;;20.17;13.25;;;13.00;99.90;;;;;;5054044;28;20029;-85
2022/06/22 04:55:16;;;;;;;19.33;13.07;;;13.10;99.90;;;;;;5036520;28;20025;-85
2022/06/22 04:57:44;;;;;;;16.30;11.73;;;13.50;99.90;;;;;;5036072;28;20083;-85
2022/06/22 05:00:20;;;;;;;17.08;10.50;;;13.90;99.90;;;;;;5036583;28;20033;-85
2022/06/22 05:02:49;;;;;;;14.45;8.95;;;14.40;99.90;;;;;;5036561;28;20501;-85
2022/06/22 05:05:21;;;;;;;10.93;7.95;;;14.90;99.90;;;;;;5036272;28;20501;-85
2022/06/22 05:08:03;;;;;;;12.63;7.57;;;15.30;99.90;;;;;;5036260;28;20047;-85
2022/06/22 05:10:52;;;;;;;13.10;6.80;;;15.90;99.90;;;;;;5036699;28;20119;-85
2022/06/22 05:13:42;;;;;;;8.82;6.05;;;16.30;99.90;;;;;;5036281;28;20021;-85
2022/06/22 05:16:15;;;;;;;8.60;6.03;;;16.50;99.90;;;;;;5036105;28;20477;-86
2022/06/22 05:18:42;;;;;;;9.05;6.47;;;16.90;99.90;;;;;;5036212;28;20027;-86
2022/06/22 05:21:37;;;;;;;9.43;6.03;;;17.10;99.90;;;;;;5036091;28;20083;-86
2022/06/22 05:24:16;;;;;;;10.02;5.65;;;17.40;99.90;;;;;;5036037;28;20036;-86
2022/06/22 05:26:42;;;;;;;10.32;6.60;;;17.60;99.90;;;;;;5036159;28;20025;-87
2022/06/22 05:29:14;;;;;;;11.18;6.25;;;17.90;99.90;;;;;;5035926;28;20027;-86
2022/06/22 05:31:48;;;;;;;14.90;7.40;;;18.00;99.90;;;;;;5036096;28;20096;-87
2022/06/22 05:34:19;;;;;;;11.95;6.60;;;18.20;99.90;;;;;;5036102;28;20032;-86
2022/06/22 05:36:51;;;;;;;10.57;5.35;;;18.30;99.90;;;;;;5035626;28;20519;-86
2022/06/22 05:39:17;;;;;;;9.60;6.18;;;18.50;99.90;;;;;;5035810;28;20021;-86
2022/06/22 05:41:46;;;;;;;10.18;5.55;;;18.70;99.90;;;;;;5035780;28;20036;-86
2022/06/22 05:44:15;;;;;;;6.47;4.97;;;18.90;99.90;;;;;;5036295;28;20064;-86
2022/06/22 05:46:51;;;;;;;8.32;5.65;;;19.10;99.90;;;;;;5035877;28;20024;-86
2022/06/22 05:49:18;;;;;;;9.65;5.75;;;19.30;99.90;;;;;;5053519;28;20048;-86
2022/06/22 05:52:02;;;;;;;9.65;6.05;;;19.30;99.90;;;;;;5035737;28;20032;-86
2022/06/22 05:54:37;;;;;;;13.35;6.25;;;19.40;99.90;;;;;;5035780;28;20033;-86
2022/06/22 05:57:17;;;;;;;12.40;6.20;;;19.30;99.90;;;;;;5053250;28;20022;-86
2022/06/22 05:59:56;;;;;;;9.88;6.60;;;19.30;99.90;;;;;;5035565;28;20378;-86
2022/06/22 06:02:39;;;;;;;11.88;7.55;;;19.20;99.90;;;;;;5035686;28;20029;-85
2022/06/22 06:05:42;;;;;;;9.65;7.15;;;19.10;99.90;;;;;;5035903;28;20120;-86
2022/06/22 06:08:24;;;;;;;8.88;6.80;;;19.00;99.90;;;;;;5024576;28;20029;-86
2022/06/22 06:10:50;;;;;;;;;;;19.00;99.90;;;;;;5040032;28;20036;-85
2022/06/22 06:13:34;;;;;;;11.90;6.85;;;18.90;99.90;;;;;;5039624;28;20003;-85
2022/06/22 06:16:02;;;;;;;12.40;6.97;;;18.80;99.90;;;;;;5039526;28;20424;-86
2022/06/22 06:18:31;;;;;;;11.50;7.03;;;18.70;99.90;;;;;;5039434;28;20111;-86
2022/06/22 06:21:06;;;;;;;8.32;6.07;;;18.70;99.90;;;;;;5039250;28;20021;-85
2022/06/22 06:24:16;;;;;;;15.57;7.30;;;18.60;99.90;;;;;;5039365;28;20481;-86
2022/06/22 06:29:58;;;;;;;11.07;7.03;;;18.50;99.90;;;;;;5057287;28;20044;-85
2022/06/22 06:32:59;;;;;;;7.63;5.68;;;18.60;99.90;;;;;;5038897;28;20025;-85
2022/06/22 06:35:42;;;;;;;11.30;7.25;;;18.70;99.90;;;;;;5039081;28;20083;-86
2022/06/22 06:38:14;;;;;;;9.55;7.25;;;18.80;99.90;;;;;;5039263;28;20025;-86
2022/06/22 06:41:01;;;;;;;14.70;7.03;;;18.80;99.90;;;;;;5038878;28;20025;-86
2022/06/22 06:44:05;;;;;;;10.40;6.63;;;18.80;99.90;;;;;;5038867;28;20091;-86
2022/06/22 06:46:38;;;;;;;11.80;7.22;;;18.90;99.90;;;;;;5055625;28;20389;-86
2022/06/22 06:49:22;;;;;;;12.48;7.30;;;19.00;99.90;;;;;;5039236;28;20184;-86
2022/06/22 06:51:57;;;;;;;9.27;6.40;;;19.00;99.90;;;;;;5055315;28;20378;-86
2022/06/22 06:54:44;;;;;;;10.43;6.55;;;19.10;99.90;;;;;;5039168;28;20027;-85
2022/06/22 06:57:19;;;;;;;10.48;6.10;;;19.20;99.90;;;;;;5056564;28;20053;-85
2022/06/22 06:59:49;;;;;;;10.07;5.72;;;19.20;99.90;;;;;;5022348;28;20524;-85
2022/06/22 07:02:24;;;;;;;11.63;6.55;;;19.30;99.90;;;;;;5018631;28;20440;-86
2022/06/22 07:04:51;;;;;;;8.95;5.78;;;19.30;99.90;;;;;;5018635;28;20040;-85
2022/06/22 07:07:48;;;;;;;10.88;4.90;;;19.30;99.90;;;;;;5018733;28;20068;-85
2022/06/22 07:10:19;;;;;;;7.88;4.68;;;19.50;99.90;;;;;;5034834;28;20029;-85
2022/06/22 07:12:59;;;;;;;8.63;5.15;;;19.50;99.90;;;;;;5036177;28;20182;-85
2022/06/22 07:15:33;;;;;;;7.22;4.75;;;19.60;99.90;;;;;;5018538;28;20036;-85
2022/06/22 07:18:03;;;;;;;9.02;5.18;;;19.70;99.90;;;;;;5018592;28;20481;-86
2022/06/22 07:20:36;;;;;;;11.95;5.60;;;19.80;99.90;;;;;;5017846;28;20026;-84
2022/06/22 07:23:12;;;;;;;9.23;5.72;;;19.90;99.90;;;;;;5035869;28;20037;-84
2022/06/22 07:25:48;;;;;;;8.10;5.60;;;19.90;99.90;;;;;;5018226;28;20021;-84
2022/06/22 07:28:23;;;;;;;11.15;4.70;;;20.10;99.90;;;;;;5018022;28;20055;-85
2022/06/22 07:30:54;;;;;;;11.95;4.75;;;20.20;99.90;;;;;;5018078;28;20022;-85
2022/06/22 07:34:01;;;;;;;8.17;5.53;;;20.20;99.90;;;;;;5017931;28;20029;-85
2022/06/22 07:36:53;;;;;;;12.32;4.43;;;20.30;99.90;;;;;;5034271;28;20331;-85
2022/06/22 07:39:35;;;;;;;9.35;5.13;;;20.30;99.90;;;;;;5009350;28;20026;-85
2022/06/22 07:42:01;;;;;;;7.75;4.00;;;20.30;99.90;;;;;;5017923;28;20405;-85
2022/06/22 07:44:31;;;;;;;7.47;3.85;;;20.40;99.90;;;;;;5017919;28;20105;-85
2022/06/22 07:47:08;;;;;;;4.60;2.38;;;20.40;99.60;;;;;;5035639;28;20022;-86
2022/06/22 07:49:45;;;;;;;5.13;2.45;;;20.50;99.30;;;;;;5035721;28;20032;-87
2022/06/22 07:52:19;;;;;;;7.85;3.78;;;20.60;99.00;;;;;;5018074;28;20456;-85
2022/06/22 07:54:50;;;;;;;6.78;3.25;;;20.70;98.20;;;;;;5035206;28;20029;-85
2022/06/22 07:57:39;;;;;;;8.98;3.15;;;20.70;97.80;;;;;;5035297;28;20021;-86
2022/06/22 08:00:12;;;;;;;5.40;2.33;;;20.80;98.10;;;;;;5017646;28;20087;-85
2022/06/22 08:03:00;;;;;;;5.95;1.88;;;20.80;96.90;;;;;;5035184;28;20486;-85
2022/06/22 08:05:30;;;;;;;5.88;2.30;;;20.90;96.30;;;;;;5034043;28;20029;-84
2022/06/22 08:08:01;;;;;;;5.35;1.83;;;20.80;95.50;;;;;;5017388;28;20381;-85
2022/06/22 08:10:45;;;;;;;6.10;2.22;;;20.90;95.50;;;;;;5033970;28;20068;-85
2022/06/22 08:13:22;;;;;;;4.60;2.13;;;21.10;95.50;;;;;;5017330;28;20064;-85
2022/06/22 08:15:59;;;;;;;4.25;1.60;;;21.10;95.40;;;;;;5035121;28;20032;-86
2022/06/22 08:18:26;;;;;;;6.20;1.65;;;21.30;95.20;;;;;;5017364;28;20030;-85
2022/06/22 08:20:53;;;;;;;5.32;1.77;;;21.30;94.50;;;;;;5034894;28;20075;-85
2022/06/22 08:23:23;;;;;;;3.60;1.40;;;21.30;94.40;;;;;;5016935;28;20452;-85
2022/06/22 08:25:50;;;;;;;4.65;1.40;;;21.40;94.00;;;;;;5017024;28;20478;-85
2022/06/22 08:28:21;;;;;;;6.43;0.90;;;21.50;93.50;;;;;;5033515;28;20048;-85
2022/06/22 08:30:51;;;;;;;2.67;1.10;;;21.60;93.70;;;;;;5033848;28;20022;-85
2022/06/22 08:33:28;;;;;;;3.30;1.00;;;21.70;92.60;;;;;;5017123;28;20482;-85
2022/06/22 08:36:04;;;;;;;3.20;1.02;;;21.70;92.30;;;;;;5033306;28;20041;-85
2022/06/22 08:38:40;;;;;;;3.35;1.05;;;21.70;91.60;;;;;;5016902;28;20053;-85
2022/06/22 08:41:39;;;;;;;4.32;1.50;;;21.80;91.50;;;;;;5016801;28;20014;-85
2022/06/22 08:45:00;;;;;;;3.60;0.98;;;21.90;90.80;;;;;;5034168;28;20068;-85
2022/06/22 08:47:47;;;;;;;4.40;1.00;;;21.90;90.70;;;;;;4957389;28;20215;-85
2022/06/22 08:50:15;;;;;;;5.88;1.10;;;22.00;90.30;;;;;;4973664;28;20033;-86
2022/06/22 08:52:53;;;;;;;2.65;0.65;;;22.00;88.90;;;;;;4994519;28;20389;-85
2022/06/22 08:55:38;;;;;;;5.85;0.60;;;22.10;89.20;;;;;;5033055;28;20113;-86
2022/06/22 08:58:23;;;;;;;2.33;0.68;;;22.10;84.80;;;;;;5016502;28;20025;-85
2022/06/22 09:01:02;;;;;;;4.63;0.98;;;22.10;84.30;;;;;;5032834;28;20034;-84
2022/06/22 09:04:10;;;;;;;3.03;0.70;;;22.10;83.30;;;;;;5034147;28;20041;-85
2022/06/22 09:07:03;;;;;;;3.50;0.55;;;22.30;83.70;;;;;;5008482;28;20040;-86
2022/06/22 09:10:03;;;;;;;3.33;0.60;;;22.30;83.10;;;;;;5034089;28;20078;-84
2022/06/22 09:12:45;;;;;;;3.67;0.47;;;22.50;81.50;;;;;;5033908;28;20060;-85
2022/06/22 09:15:29;;;;;;;2.65;0.80;;;22.50;80.80;;;;;;5032889;28;20033;-85
2022/06/22 09:18:15;;;;;;;2.40;0.40;;;22.50;79.20;;;;;;5016387;28;20068;-85
2022/06/22 09:20:49;;;;;;;2.78;0.50;;;22.50;78.00;;;;;;5032701;28;20029;-85
2022/06/22 09:23:27;;;;;;;2.83;0.40;;;22.50;76.60;;;;;;5033688;28;20095;-85
2022/06/22 09:26:07;;;;;;;4.00;0.40;;;22.60;77.60;;;;;;5032715;28;20025;-86
2022/06/22 09:28:45;;;;;;;1.45;0.40;;;22.80;77.50;;;;;;5033707;28;20013;-85
2022/06/22 09:31:26;;;;;;;4.75;0.60;;;22.90;76.60;;;;;;5032438;28;20460;-85
2022/06/22 09:34:17;;;;;;;1.20;0.40;;;23.00;75.40;;;;;;5032477;28;20414;-85
2022/06/22 09:36:56;;;;;;;1.77;0.40;;;23.10;75.50;;;;;;5032128;28;20060;-85
2022/06/22 09:39:31;;;;;;;2.38;0.43;;;23.10;74.80;;;;;;5033370;28;20026;-84
2022/06/22 09:42:23;;;;;;;2.95;0.50;;;23.30;75.00;;;;;;5031992;28;20481;-84
2022/06/22 09:45:07;;;;;;;2.55;0.43;;;23.40;74.90;;;;;;5034064;28;20030;-84
2022/06/22 09:47:51;;;;;;;2.83;0.40;;;23.50;74.60;;;;;;5033536;28;20021;-84
2022/06/22 09:50:38;;;;;;;2.83;0.45;;;23.70;73.80;;;;;;5032412;28;20108;-85
2022/06/22 09:53:13;;;;;;;7.35;0.85;;;23.80;72.70;;;;;;5032623;28;20392;-85
2022/06/22 09:58:52;;;;;;;2.63;0.50;;;23.70;70.80;;;;;;5033773;28;20056;-85
2022/06/22 10:01:43;;;;;;;2.65;0.40;;;23.70;70.90;;;;;;5033212;28;20103;-85
2022/06/22 10:04:30;;;;;;;1.93;0.63;;;23.70;70.30;;;;;;5032317;28;20158;-85
2022/06/22 10:07:10;;;;;;;4.07;0.50;;;23.70;67.90;;;;;;5032565;28;20036;-85
2022/06/22 10:10:13;;;;;;;2.70;0.50;;;23.70;68.40;;;;;;5032081;28;20018;-84
2022/06/22 10:12:57;;;;;;;3.50;0.50;;;23.70;67.20;;;;;;5032157;28;20080;-84
2022/06/22 10:16:04;;;;;;;3.85;0.30;;;23.70;67.80;;;;;;5032990;28;20101;-84
2022/06/22 10:18:39;;;;;;;1.45;0.35;;;23.80;68.40;;;;;;5015817;28;20060;-85
2022/06/22 10:21:16;;;;;;;2.72;0.40;;;23.80;65.60;;;;;;5031925;28;20026;-85
2022/06/22 10:23:56;;;;;;;2.15;0.40;;;23.80;65.00;;;;;;5033434;28;20036;-84
2022/06/22 10:27:01;;;;;;;3.83;0.40;;;23.90;64.50;;;;;;5033127;28;20024;-85
2022/06/22 10:29:45;;;;;;;2.45;0.40;;;23.90;64.70;;;;;;5032935;28;20025;-85
2022/06/22 10:32:28;;;;;;;2.72;0.40;;;24.00;64.30;;;;;;5033020;28;20029;-85
2022/06/22 10:35:14;;;;;;;1.88;0.30;;;24.20;65.10;;;;;;5031311;28;20055;-85
2022/06/22 10:38:03;;;;;;;2.33;0.32;;;24.40;63.20;;;;;;5029858;28;20029;-84
2022/06/22 10:46:44;;;;;;;3.00;0.40;;;24.70;61.40;;;;;;5033133;28;20052;-85
2022/06/22 10:49:25;;;;;;;3.15;0.50;;;24.70;61.00;;;;;;5031974;28;20026;-85
2022/06/22 10:52:10;;;;;;;2.63;0.40;;;24.70;60.10;;;;;;5032737;28;20075;-85
2022/06/22 10:54:57;;;;;;;3.75;0.40;;;24.70;59.30;;;;;;5033822;28;20022;-85
2022/06/22 10:57:43;;;;;;;2.30;0.30;;;24.60;59.00;;;;;;5018700;28;20025;-85
2022/06/22 11:00:25;;;;;;;2.95;0.30;;;24.60;58.30;;;;;;5018581;28;20072;-85
2022/06/22 11:02:59;;;;;;;;;;;24.70;58.30;;;;;;5035315;28;20121;-85
2022/06/22 11:05:46;;;;;;;1.13;0.30;;;24.60;57.20;;;;;;5035053;28;19944;-84
2022/06/22 11:08:37;;;;;;;2.50;0.30;;;24.70;57.10;;;;;;5035089;28;20417;-85
2022/06/22 11:11:29;;;;;;;2.73;0.30;;;24.60;56.90;;;;;;5018296;28;20375;-85
2022/06/22 11:14:18;;;;;;;2.08;0.30;;;24.70;57.30;;;;;;5018627;28;20056;-84
2022/06/22 11:17:12;;;;;;;1.58;0.20;;;24.70;57.80;;;;;;5034837;28;20037;-84
2022/06/22 11:20:05;;;;;;;1.13;0.20;;;24.90;56.80;;;;;;5018365;28;20413;-84
2022/06/22 11:22:39;;;;;;;2.45;0.30;;;25.00;56.80;;;;;;5035987;28;20037;-85
2022/06/22 11:30:48;;;;;;;0.80;0.20;;;25.10;55.90;;;;;;5018277;28;20030;-85
2022/06/22 11:32:09;;;;;;;1.73;0.30;;;25.00;55.00;;;;;;5035529;28;20454;-85
2022/06/22 11:34:53;;;;;;;1.25;0.22;;;25.00;55.40;;;;;;5018078;28;20025;-85
2022/06/22 11:37:35;;;;;;;1.45;0.20;;;25.10;54.50;;;;;;5034356;28;20041;-85
2022/06/22 11:40:24;;;;;;;0.98;0.10;;;25.10;54.20;;;;;;5035640;28;20362;-85
2022/06/22 11:43:12;;;;;;;2.30;0.30;;;25.30;53.50;;;;;;5034301;28;20034;-84
2022/06/22 11:45:55;;;;;;;0.80;0.30;;;25.30;53.70;;;;;;5017857;28;20059;-84
2022/06/22 11:48:37;;;;;;;1.95;0.20;;;25.40;54.30;;;;;;5035331;28;20086;-85
2022/06/22 11:51:32;;;;;;;1.88;0.20;;;25.60;54.40;;;;;;5034076;28;20099;-85
2022/06/22 11:54:31;;;;;;;2.28;0.30;;;25.60;54.00;;;;;;5035121;28;20045;-84
2022/06/22 11:56:56;;;;;;;2.25;0.30;;;25.60;54.70;;;;;;5033986;28;20517;-84
2022/06/22 11:59:44;;;;;;;1.95;0.30;;;25.60;55.00;;;;;;5035221;28;20026;-85
2022/06/22 12:02:28;;;;;;;2.00;0.35;;;25.70;53.80;;;;;;5034711;28;20033;-84
2022/06/22 12:05:44;;;;;;;2.42;0.32;;;25.70;53.20;;;;;;5033477;28;20025;-84
2022/06/22 12:08:32;;;;;;;1.35;0.20;;;25.60;53.10;;;;;;4974100;28;20058;-84
2022/06/22 12:11:35;;;;;;;1.20;0.30;;;25.70;53.10;;;;;;4974270;28;20050;-85
2022/06/22 12:17:18;;;;;;;1.08;0.20;;;25.80;52.80;;;;;;5035150;28;20044;-85
2022/06/22 12:20:15;;;;;;;1.02;0.38;;;25.80;52.70;;;;;;5035120;28;20104;-85
2022/06/22 12:23:06;;;;;;;4.45;0.40;;;25.90;52.30;;;;;;5014141;28;20041;-85
2022/06/22 12:26:04;;;;;;;2.05;0.20;;;26.10;52.10;;;;;;5034513;28;20017;-84
2022/06/22 12:28:52;;;;;;;0.77;0.30;;;26.20;52.30;;;;;;5034602;28;20477;-85
2022/06/22 12:31:20;;;;;;;2.13;0.20;;;26.40;51.50;;;;;;5033522;28;20478;-85
2022/06/22 12:34:02;;;;;;;1.23;0.30;;;26.30;50.50;;;;;;5016788;28;20056;-85
2022/06/22 12:36:36;;;;;;;3.15;0.35;;;26.30;50.20;;;;;;5034284;28;20045;-85
2022/06/22 12:39:08;;;;;;;1.90;0.30;;;26.30;50.10;;;;;;5034445;28;20060;-85
2022/06/22 12:41:52;;;;;;;1.33;0.30;;;26.20;50.10;;;;;;5034171;28;20021;-85
2022/06/22 12:44:35;;;;;;;1.52;0.35;;;26.20;49.60;;;;;;5033381;28;20033;-85
2022/06/22 12:47:29;;;;;;;3.80;0.35;;;26.10;49.60;;;;;;5033088;28;20026;-85
2022/06/22 12:50:06;;;;;;;1.98;0.40;;;26.30;49.60;;;;;;5033968;28;20030;-84
2022/06/22 12:52:44;;;;;;;2.72;0.45;;;26.50;49.40;;;;;;5016593;28;20470;-84
2022/06/22 12:55:18;;;;;;;1.35;0.30;;;26.50;48.20;;;;;;5034188;28;20075;-84
2022/06/22 12:57:58;;;;;;;0.70;0.20;;;26.40;47.30;;;;;;5033826;28;20052;-85
2022/06/22 13:00:25;;;;;;;0.73;0.15;;;26.30;47.30;;;;;;5016431;28;20442;-85
2022/06/22 13:02:56;;;;;;;0.60;0.15;;;26.30;47.20;;;;;;5016422;28;20048;-85
2022/06/22 13:05:26;;;;;;;2.22;0.30;;;26.30;46.30;;;;;;5016400;28;20026;-85
2022/06/22 13:08:10;;;;;;;0.75;0.20;;;26.20;46.50;;;;;;5016266;28;20061;-85
2022/06/22 13:10:42;;;;;;;1.65;0.30;;;26.30;47.10;;;;;;5034121;28;20057;-85
2022/06/22 13:13:18;;;;;;;1.95;0.52;;;26.30;47.20;;;;;;5016296;28;20022;-84
2022/06/22 13:15:50;;;;;;;1.52;0.30;;;26.30;47.40;;;;;;5032569;28;20029;-85
2022/06/22 13:18:20;;;;;;;;;;;26.40;47.30;;;;;;5033707;28;20025;-84
2022/06/22 13:21:25;;;;;;;2.00;0.22;;;26.40;47.10;;;;;;5033865;28;19912;-85
2022/06/22 13:24:05;;;;;;;1.15;0.30;;;26.40;46.70;;;;;;4953508;29;20040;-85
2022/06/22 13:27:08;;;;;;;1.05;0.20;;;26.40;46.50;;;;;;4937232;29;20108;-85
2022/06/22 13:29:46;;;;;;;2.30;0.20;;;26.50;45.70;;;;;;5001769;28;20128;-84
2022/06/22 13:32:12;;;;;;;2.00;0.40;;;26.60;45.50;;;;;;5033353;28;20029;-85
2022/06/22 13:34:44;;;;;;;1.58;0.20;;;26.80;46.50;;;;;;5015789;28;20037;-85
2022/06/22 13:37:27;;;;;;;2.60;0.20;;;27.10;46.40;;;;;;5015983;28;20080;-85
2022/06/22 13:40:26;;;;;;;0.90;0.20;;;27.30;46.10;;;;;;5015911;28;20026;-85
2022/06/22 13:43:13;;;;;;;3.38;0.40;;;27.30;45.40;;;;;;5015668;28;20068;-85
2022/06/22 13:46:16;;;;;;;1.25;0.20;;;27.20;45.40;;;;;;5015535;28;20025;-85
2022/06/22 13:48:53;;;;;;;1.65;0.30;;;27.20;46.00;;;;;;5033197;28;20017;-84
2022/06/22 13:51:35;;;;;;;1.70;0.40;;;27.20;45.70;;;;;;5015732;28;20045;-84
2022/06/22 13:54:15;;;;;;;4.95;0.40;;;27.30;46.10;;;;;;5015787;28;20029;-85
2022/06/22 13:56:53;;;;;;;1.02;0.20;;;27.30;45.90;;;;;;5033417;28;20093;-85
2022/06/22 13:59:22;;;;;;;2.83;0.30;;;27.50;45.60;;;;;;5033187;28;20500;-85
2022/06/22 14:01:53;;;;;;;1.00;0.20;;;27.50;45.10;;;;;;5033027;28;20029;-85
2022/06/22 14:04:28;;;;;;;1.73;0.10;;;27.70;45.40;;;;;;5033197;28;20095;-84
2022/06/22 14:07:19;;;;;;;2.13;0.30;;;27.80;45.90;;;;;;5033232;28;20053;-84
2022/06/22 14:09:51;;;;;;;0.77;0.20;;;27.90;45.10;;;;;;5001920;28;20030;-85
2022/06/22 14:12:25;;;;;;;1.02;0.20;;;27.90;45.40;;;;;;5033000;28;20692;-85